sensor_id;sensor_type;location;lat;lon;timestamp;pressure;altitude;pressure_sealevel;temperature;humidity
28027;BME280;15344;52.342;-1.290;2023-01-29T00:00:49;101632.09;;;9.98;83.57
28027;BME280;15344;52.342;-1.290;2023-01-29T00:03:15;101620.53;;;11.06;79.80
28027;BME280;15344;52.342;-1.290;2023-01-29T00:05:40;101619.08;;;10.74;81.83
28027;BME280;15344;52.342;-1.290;2023-01-29T00:08:05;101620.37;;;10.77;81.57
28027;BME280;15344;52.342;-1.290;2023-01-29T00:10:36;101616.82;;;10.78;80.34
28027;BME280;15344;52.342;-1.290;2023-01-29T00:12:57;101614.21;;;10.93;80.52
28027;BME280;15344;52.342;-1.290;2023-01-29T00:15:22;101615.03;;;10.80;79.26
28027;BME280;15344;52.342;-1.290;2023-01-29T00:17:47;101615.99;;;10.69;81.18
28027;BME280;15344;52.342;-1.290;2023-01-29T00:20:13;101625.12;;;10.20;82.84
28027;BME280;15344;52.342;-1.290;2023-01-29T00:22:38;101622.08;;;10.32;82.66
28027;BME280;15344;52.342;-1.290;2023-01-29T00:25:04;101616.51;;;10.08;84.55
28027;BME280;15344;52.342;-1.290;2023-01-29T00:27:29;101611.54;;;10.54;82.23
28027;BME280;15344;52.342;-1.290;2023-01-29T00:29:53;101613.09;;;10.50;82.35
28027;BME280;15344;52.342;-1.290;2023-01-29T00:32:19;101609.78;;;10.45;82.50
28027;BME280;15344;52.342;-1.290;2023-01-29T00:34:44;101609.36;;;10.34;82.29
28027;BME280;15344;52.342;-1.290;2023-01-29T00:37:10;101608.78;;;10.36;82.45
28027;BME280;15344;52.342;-1.290;2023-01-29T00:39:35;101616.49;;;10.09;84.38
28027;BME280;15344;52.342;-1.290;2023-01-29T00:42:01;101617.19;;;10.29;83.58
28027;BME280;15344;52.342;-1.290;2023-01-29T00:44:26;101618.66;;;10.13;83.50
28027;BME280;15344;52.342;-1.290;2023-01-29T00:46:52;101619.80;;;10.32;82.98
28027;BME280;15344;52.342;-1.290;2023-01-29T00:49:17;101626.68;;;9.64;85.01
28027;BME280;15344;52.342;-1.290;2023-01-29T00:51:43;101623.66;;;9.67;84.76
28027;BME280;15344;52.342;-1.290;2023-01-29T00:54:08;101628.15;;;9.44;85.17
28027;BME280;15344;52.342;-1.290;2023-01-29T00:56:35;101632.91;;;10.26;83.35
28027;BME280;15344;52.342;-1.290;2023-01-29T00:59:00;101634.91;;;10.47;81.54
28027;BME280;15344;52.342;-1.290;2023-01-29T01:01:25;101635.50;;;10.27;81.99
28027;BME280;15344;52.342;-1.290;2023-01-29T01:03:51;101634.98;;;9.24;85.58
28027;BME280;15344;52.342;-1.290;2023-01-29T01:06:16;101632.93;;;9.40;86.24
28027;BME280;15344;52.342;-1.290;2023-01-29T01:08:41;101625.44;;;9.47;85.43
28027;BME280;15344;52.342;-1.290;2023-01-29T01:11:07;101623.39;;;9.84;84.27
28027;BME280;15344;52.342;-1.290;2023-01-29T01:13:33;101619.32;;;10.00;83.22
28027;BME280;15344;52.342;-1.290;2023-01-29T01:15:57;101619.41;;;9.60;87.29
28027;BME280;15344;52.342;-1.290;2023-01-29T01:18:23;101617.24;;;9.37;86.63
28027;BME280;15344;52.342;-1.290;2023-01-29T01:20:48;101612.98;;;10.02;83.15
28027;BME280;15344;52.342;-1.290;2023-01-29T01:23:14;101613.65;;;9.70;84.44
28027;BME280;15344;52.342;-1.290;2023-01-29T01:25:40;101608.82;;;8.86;86.68
28027;BME280;15344;52.342;-1.290;2023-01-29T01:28:05;101603.04;;;9.58;85.40
28027;BME280;15344;52.342;-1.290;2023-01-29T01:30:30;101602.92;;;9.50;85.13
28027;BME280;15344;52.342;-1.290;2023-01-29T01:32:56;101597.37;;;9.41;85.85
28027;BME280;15344;52.342;-1.290;2023-01-29T01:35:21;101600.22;;;9.39;85.95
28027;BME280;15344;52.342;-1.290;2023-01-29T01:37:46;101598.74;;;9.40;87.00
28027;BME280;15344;52.342;-1.290;2023-01-29T01:40:15;101597.64;;;9.56;87.24
28027;BME280;15344;52.342;-1.290;2023-01-29T01:42:39;101594.11;;;9.33;88.55
28027;BME280;15344;52.342;-1.290;2023-01-29T01:45:05;101592.33;;;9.02;90.58
28027;BME280;15344;52.342;-1.290;2023-01-29T01:47:32;101587.53;;;9.06;90.16
28027;BME280;15344;52.342;-1.290;2023-01-29T01:49:54;101589.95;;;8.85;91.13
28027;BME280;15344;52.342;-1.290;2023-01-29T01:52:19;101585.88;;;9.42;87.73
28027;BME280;15344;52.342;-1.290;2023-01-29T01:54:45;101584.78;;;8.99;90.92
28027;BME280;15344;52.342;-1.290;2023-01-29T01:57:13;101579.19;;;9.10;90.72
28027;BME280;15344;52.342;-1.290;2023-01-29T01:59:37;101577.75;;;9.58;88.78
28027;BME280;15344;52.342;-1.290;2023-01-29T02:02:01;101575.17;;;10.04;85.98
28027;BME280;15344;52.342;-1.290;2023-01-29T02:04:26;101573.26;;;9.88;86.18
28027;BME280;15344;52.342;-1.290;2023-01-29T02:06:53;101566.83;;;9.55;86.81
28027;BME280;15344;52.342;-1.290;2023-01-29T02:09:21;101564.94;;;10.35;84.41
28027;BME280;15344;52.342;-1.290;2023-01-29T02:11:43;101559.94;;;9.60;84.06
28027;BME280;15344;52.342;-1.290;2023-01-29T02:14:08;101559.96;;;9.94;82.46
28027;BME280;15344;52.342;-1.290;2023-01-29T02:16:35;101556.18;;;10.30;82.57
28027;BME280;15344;52.342;-1.290;2023-01-29T02:18:59;101552.97;;;10.55;81.42
28027;BME280;15344;52.342;-1.290;2023-01-29T02:24:08;101543.50;;;10.44;80.58
28027;BME280;15344;52.342;-1.290;2023-01-29T02:26:26;101538.60;;;9.66;84.55
28027;BME280;15344;52.342;-1.290;2023-01-29T02:28:44;101538.57;;;9.33;86.42
28027;BME280;15344;52.342;-1.290;2023-01-29T02:31:14;101538.80;;;9.27;87.29
28027;BME280;15344;52.342;-1.290;2023-01-29T02:33:42;101541.94;;;9.23;87.69
28027;BME280;15344;52.342;-1.290;2023-01-29T02:36:03;101538.53;;;9.37;87.22
28027;BME280;15344;52.342;-1.290;2023-01-29T02:38:30;101538.18;;;9.13;88.11
28027;BME280;15344;52.342;-1.290;2023-01-29T02:40:52;101530.14;;;8.70;90.48
28027;BME280;15344;52.342;-1.290;2023-01-29T02:43:21;101527.89;;;8.74;90.82
28027;BME280;15344;52.342;-1.290;2023-01-29T02:45:45;101530.41;;;8.88;89.69
28027;BME280;15344;52.342;-1.290;2023-01-29T02:48:05;101521.80;;;8.71;89.21
28027;BME280;15344;52.342;-1.290;2023-01-29T02:50:36;101522.47;;;9.03;88.75
28027;BME280;15344;52.342;-1.290;2023-01-29T02:53:00;101521.99;;;8.91;89.67
28027;BME280;15344;52.342;-1.290;2023-01-29T02:55:26;101520.22;;;9.01;88.38
28027;BME280;15344;52.342;-1.290;2023-01-29T02:57:49;101511.63;;;8.86;89.22
28027;BME280;15344;52.342;-1.290;2023-01-29T03:00:15;101507.11;;;9.16;86.92
28027;BME280;15344;52.342;-1.290;2023-01-29T03:02:42;101507.80;;;9.16;87.36
28027;BME280;15344;52.342;-1.290;2023-01-29T03:05:07;101504.85;;;8.85;89.10
28027;BME280;15344;52.342;-1.290;2023-01-29T03:07:34;101496.05;;;8.63;89.46
28027;BME280;15344;52.342;-1.290;2023-01-29T03:09:53;101496.19;;;8.60;90.67
28027;BME280;15344;52.342;-1.290;2023-01-29T03:12:22;101498.15;;;9.07;89.41
28027;BME280;15344;52.342;-1.290;2023-01-29T03:14:47;101488.95;;;8.43;91.30
28027;BME280;15344;52.342;-1.290;2023-01-29T03:17:09;101485.07;;;8.16;91.50
28027;BME280;15344;52.342;-1.290;2023-01-29T03:19:38;101489.15;;;8.40;89.74
28027;BME280;15344;52.342;-1.290;2023-01-29T03:22:02;101489.63;;;8.17;92.46
28027;BME280;15344;52.342;-1.290;2023-01-29T03:24:35;101475.39;;;8.09;93.82
28027;BME280;15344;52.342;-1.290;2023-01-29T03:26:52;101471.74;;;7.83;94.15
28027;BME280;15344;52.342;-1.290;2023-01-29T03:29:17;101473.92;;;8.07;93.91
28027;BME280;15344;52.342;-1.290;2023-01-29T03:31:43;101459.29;;;7.88;95.76
28027;BME280;15344;52.342;-1.290;2023-01-29T03:34:11;101457.06;;;7.70;96.49
28027;BME280;15344;52.342;-1.290;2023-01-29T03:36:36;101468.48;;;7.86;97.09
28027;BME280;15344;52.342;-1.290;2023-01-29T03:38:59;101469.08;;;7.92;96.13
28027;BME280;15344;52.342;-1.290;2023-01-29T03:41:29;101469.85;;;7.81;97.73
28027;BME280;15344;52.342;-1.290;2023-01-29T03:43:55;101468.73;;;8.27;93.68
28027;BME280;15344;52.342;-1.290;2023-01-29T03:46:22;101463.27;;;7.52;94.79
28027;BME280;15344;52.342;-1.290;2023-01-29T03:48:48;101469.62;;;7.73;98.44
28027;BME280;15344;52.342;-1.290;2023-01-29T03:51:15;101465.75;;;7.79;96.22
28027;BME280;15344;52.342;-1.290;2023-01-29T03:53:39;101466.55;;;7.54;96.71
28027;BME280;15344;52.342;-1.290;2023-01-29T03:56:00;101465.98;;;7.33;97.38
28027;BME280;15344;52.342;-1.290;2023-01-29T03:58:28;101465.61;;;7.22;99.22
28027;BME280;15344;52.342;-1.290;2023-01-29T04:00:53;101457.93;;;7.84;95.29
28027;BME280;15344;52.342;-1.290;2023-01-29T04:03:18;101457.37;;;7.98;94.23
28027;BME280;15344;52.342;-1.290;2023-01-29T04:05:43;101448.14;;;7.87;95.30
28027;BME280;15344;52.342;-1.290;2023-01-29T04:08:08;101445.62;;;8.35;92.24
28027;BME280;15344;52.342;-1.290;2023-01-29T04:10:33;101444.60;;;8.05;92.82
28027;BME280;15344;52.342;-1.290;2023-01-29T04:12:58;101440.28;;;7.39;96.25
28027;BME280;15344;52.342;-1.290;2023-01-29T04:15:23;101436.73;;;7.05;100.00
28027;BME280;15344;52.342;-1.290;2023-01-29T04:17:49;101435.58;;;7.48;98.10
28027;BME280;15344;52.342;-1.290;2023-01-29T04:20:13;101437.36;;;7.45;99.36
28027;BME280;15344;52.342;-1.290;2023-01-29T04:22:42;101439.68;;;6.90;100.00
28027;BME280;15344;52.342;-1.290;2023-01-29T04:25:07;101426.65;;;7.13;100.00
28027;BME280;15344;52.342;-1.290;2023-01-29T04:27:36;101426.51;;;7.41;100.00
28027;BME280;15344;52.342;-1.290;2023-01-29T04:30:06;101427.83;;;6.34;100.00
28027;BME280;15344;52.342;-1.290;2023-01-29T04:32:26;101433.71;;;6.83;100.00
28027;BME280;15344;52.342;-1.290;2023-01-29T04:34:59;101435.50;;;7.35;100.00
28027;BME280;15344;52.342;-1.290;2023-01-29T04:37:16;101434.07;;;7.34;100.00
28027;BME280;15344;52.342;-1.290;2023-01-29T04:39:45;101433.24;;;7.50;100.00
28027;BME280;15344;52.342;-1.290;2023-01-29T04:42:11;101424.11;;;7.67;100.00
28027;BME280;15344;52.342;-1.290;2023-01-29T04:44:35;101427.90;;;8.03;98.36
28027;BME280;15344;52.342;-1.290;2023-01-29T04:47:01;101411.71;;;7.00;100.00
28027;BME280;15344;52.342;-1.290;2023-01-29T04:49:30;101407.24;;;7.72;100.00
28027;BME280;15344;52.342;-1.290;2023-01-29T04:51:53;101408.14;;;7.70;100.00
28027;BME280;15344;52.342;-1.290;2023-01-29T04:54:17;101404.76;;;7.37;100.00
28027;BME280;15344;52.342;-1.290;2023-01-29T04:56:45;101398.90;;;7.26;100.00
28027;BME280;15344;52.342;-1.290;2023-01-29T04:59:05;101396.24;;;7.26;100.00
28027;BME280;15344;52.342;-1.290;2023-01-29T05:01:29;101400.15;;;7.62;100.00
28027;BME280;15344;52.342;-1.290;2023-01-29T05:03:53;101392.42;;;7.55;100.00
28027;BME280;15344;52.342;-1.290;2023-01-29T05:06:20;101389.12;;;7.33;100.00
28027;BME280;15344;52.342;-1.290;2023-01-29T05:08:44;101383.23;;;7.79;100.00
28027;BME280;15344;52.342;-1.290;2023-01-29T05:11:11;101376.42;;;7.94;100.00
28027;BME280;15344;52.342;-1.290;2023-01-29T05:13:37;101369.22;;;7.36;100.00
28027;BME280;15344;52.342;-1.290;2023-01-29T05:16:05;101362.90;;;7.29;100.00
28027;BME280;15344;52.342;-1.290;2023-01-29T05:18:27;101366.27;;;7.63;100.00
28027;BME280;15344;52.342;-1.290;2023-01-29T05:20:53;101363.01;;;7.99;100.00
28027;BME280;15344;52.342;-1.290;2023-01-29T05:23:20;101356.11;;;7.42;100.00
28027;BME280;15344;52.342;-1.290;2023-01-29T05:25:44;101357.97;;;7.52;100.00
28027;BME280;15344;52.342;-1.290;2023-01-29T05:28:09;101354.43;;;7.66;100.00
28027;BME280;15344;52.342;-1.290;2023-01-29T05:30:54;101354.35;;;7.80;100.00
28027;BME280;15344;52.342;-1.290;2023-01-29T05:33:00;101352.78;;;7.77;100.00
28027;BME280;15344;52.342;-1.290;2023-01-29T05:35:25;101351.77;;;7.72;100.00
28027;BME280;15344;52.342;-1.290;2023-01-29T05:37:50;101344.87;;;7.60;100.00
28027;BME280;15344;52.342;-1.290;2023-01-29T05:40:16;101350.27;;;7.98;100.00
28027;BME280;15344;52.342;-1.290;2023-01-29T05:42:42;101350.30;;;7.89;100.00
28027;BME280;15344;52.342;-1.290;2023-01-29T05:45:08;101341.83;;;8.41;100.00
28027;BME280;15344;52.342;-1.290;2023-01-29T05:47:33;101340.12;;;7.48;100.00
28027;BME280;15344;52.342;-1.290;2023-01-29T05:49:58;101334.95;;;7.74;100.00
28027;BME280;15344;52.342;-1.290;2023-01-29T05:52:24;101333.48;;;7.37;100.00
28027;BME280;15344;52.342;-1.290;2023-01-29T05:54:49;101330.44;;;7.67;100.00
28027;BME280;15344;52.342;-1.290;2023-01-29T05:57:15;101330.26;;;7.65;100.00
28027;BME280;15344;52.342;-1.290;2023-01-29T05:59:40;101330.13;;;7.97;100.00
28027;BME280;15344;52.342;-1.290;2023-01-29T06:02:06;101328.13;;;7.43;100.00
28027;BME280;15344;52.342;-1.290;2023-01-29T06:04:32;101327.01;;;7.74;100.00
28027;BME280;15344;52.342;-1.290;2023-01-29T06:06:57;101330.43;;;7.77;100.00
28027;BME280;15344;52.342;-1.290;2023-01-29T06:09:22;101321.55;;;7.61;100.00
28027;BME280;15344;52.342;-1.290;2023-01-29T06:11:48;101324.12;;;8.02;100.00
28027;BME280;15344;52.342;-1.290;2023-01-29T06:14:13;101321.88;;;7.58;100.00
28027;BME280;15344;52.342;-1.290;2023-01-29T06:16:38;101318.79;;;7.61;100.00
28027;BME280;15344;52.342;-1.290;2023-01-29T06:19:04;101318.56;;;8.00;100.00
28027;BME280;15344;52.342;-1.290;2023-01-29T06:21:29;101314.69;;;8.06;100.00
28027;BME280;15344;52.342;-1.290;2023-01-29T06:23:55;101319.55;;;8.17;100.00
28027;BME280;15344;52.342;-1.290;2023-01-29T06:26:20;101313.18;;;7.53;100.00
28027;BME280;15344;52.342;-1.290;2023-01-29T06:28:48;101313.08;;;8.17;100.00
28027;BME280;15344;52.342;-1.290;2023-01-29T06:31:11;101314.36;;;8.06;100.00
28027;BME280;15344;52.342;-1.290;2023-01-29T06:33:36;101311.40;;;8.12;100.00
28027;BME280;15344;52.342;-1.290;2023-01-29T06:36:03;101305.53;;;7.77;100.00
28027;BME280;15344;52.342;-1.290;2023-01-29T06:38:27;101311.57;;;7.62;100.00
28027;BME280;15344;52.342;-1.290;2023-01-29T06:40:53;101311.13;;;8.14;100.00
28027;BME280;15344;52.342;-1.290;2023-01-29T06:43:18;101306.11;;;8.57;100.00
28027;BME280;15344;52.342;-1.290;2023-01-29T06:45:48;101304.06;;;8.03;100.00
28027;BME280;15344;52.342;-1.290;2023-01-29T06:48:10;101301.22;;;7.89;100.00
28027;BME280;15344;52.342;-1.290;2023-01-29T06:50:35;101296.30;;;7.61;100.00
28027;BME280;15344;52.342;-1.290;2023-01-29T06:53:00;101294.60;;;7.57;100.00
28027;BME280;15344;52.342;-1.290;2023-01-29T06:55:26;101290.93;;;7.80;100.00
28027;BME280;15344;52.342;-1.290;2023-01-29T06:57:51;101295.20;;;7.89;100.00
28027;BME280;15344;52.342;-1.290;2023-01-29T07:00:17;101306.65;;;7.82;100.00
28027;BME280;15344;52.342;-1.290;2023-01-29T07:02:42;101293.46;;;7.45;100.00
28027;BME280;15344;52.342;-1.290;2023-01-29T07:05:08;101302.13;;;8.03;100.00
28027;BME280;15344;52.342;-1.290;2023-01-29T07:07:35;101291.60;;;7.18;100.00
28027;BME280;15344;52.342;-1.290;2023-01-29T07:09:58;101292.39;;;7.39;100.00
28027;BME280;15344;52.342;-1.290;2023-01-29T07:12:24;101292.76;;;8.11;100.00
28027;BME280;15344;52.342;-1.290;2023-01-29T07:14:49;101293.25;;;7.74;100.00
28027;BME280;15344;52.342;-1.290;2023-01-29T07:17:15;101290.95;;;7.40;100.00
28027;BME280;15344;52.342;-1.290;2023-01-29T07:19:41;101291.73;;;8.05;100.00
28027;BME280;15344;52.342;-1.290;2023-01-29T07:22:06;101289.28;;;7.58;100.00
28027;BME280;15344;52.342;-1.290;2023-01-29T07:24:31;101287.11;;;7.75;100.00
28027;BME280;15344;52.342;-1.290;2023-01-29T07:26:56;101282.81;;;6.94;100.00
28027;BME280;15344;52.342;-1.290;2023-01-29T07:29:22;101275.24;;;7.04;100.00
28027;BME280;15344;52.342;-1.290;2023-01-29T07:31:48;101270.86;;;7.14;100.00
28027;BME280;15344;52.342;-1.290;2023-01-29T07:34:13;101269.36;;;6.70;100.00
28027;BME280;15344;52.342;-1.290;2023-01-29T07:36:39;101269.79;;;7.30;100.00
28027;BME280;15344;52.342;-1.290;2023-01-29T07:39:04;101273.12;;;7.36;100.00
28027;BME280;15344;52.342;-1.290;2023-01-29T07:41:30;101270.87;;;7.27;100.00
28027;BME280;15344;52.342;-1.290;2023-01-29T07:43:56;101261.52;;;6.57;100.00
28027;BME280;15344;52.342;-1.290;2023-01-29T07:46:21;101266.11;;;6.93;100.00
28027;BME280;15344;52.342;-1.290;2023-01-29T07:48:46;101269.75;;;7.30;100.00
28027;BME280;15344;52.342;-1.290;2023-01-29T07:51:12;101267.82;;;6.84;100.00
28027;BME280;15344;52.342;-1.290;2023-01-29T07:53:37;101268.54;;;6.85;100.00
28027;BME280;15344;52.342;-1.290;2023-01-29T07:56:04;101270.91;;;7.07;100.00
28027;BME280;15344;52.342;-1.290;2023-01-29T07:58:29;101272.36;;;7.76;100.00
28027;BME280;15344;52.342;-1.290;2023-01-29T08:00:54;101275.13;;;7.29;100.00
28027;BME280;15344;52.342;-1.290;2023-01-29T08:03:24;101272.95;;;7.35;100.00
28027;BME280;15344;52.342;-1.290;2023-01-29T08:05:46;101268.12;;;7.84;100.00
28027;BME280;15344;52.342;-1.290;2023-01-29T08:08:11;101265.04;;;7.22;100.00
28027;BME280;15344;52.342;-1.290;2023-01-29T08:10:38;101269.84;;;8.12;100.00
28027;BME280;15344;52.342;-1.290;2023-01-29T08:13:02;101271.53;;;7.60;100.00
28027;BME280;15344;52.342;-1.290;2023-01-29T08:15:28;101264.45;;;7.24;100.00
28027;BME280;15344;52.342;-1.290;2023-01-29T08:17:53;101263.90;;;6.87;100.00
28027;BME280;15344;52.342;-1.290;2023-01-29T08:20:19;101261.97;;;6.68;100.00
28027;BME280;15344;52.342;-1.290;2023-01-29T08:22:44;101264.06;;;7.33;100.00
28027;BME280;15344;52.342;-1.290;2023-01-29T08:25:10;101264.20;;;7.24;100.00
28027;BME280;15344;52.342;-1.290;2023-01-29T08:27:35;101265.49;;;6.95;100.00
28027;BME280;15344;52.342;-1.290;2023-01-29T08:30:00;101264.24;;;7.13;100.00
28027;BME280;15344;52.342;-1.290;2023-01-29T08:32:25;101266.50;;;7.73;100.00
28027;BME280;15344;52.342;-1.290;2023-01-29T08:34:51;101270.64;;;7.61;100.00
28027;BME280;15344;52.342;-1.290;2023-01-29T08:37:16;101271.19;;;7.84;100.00
28027;BME280;15344;52.342;-1.290;2023-01-29T08:39:42;101266.80;;;7.72;100.00
28027;BME280;15344;52.342;-1.290;2023-01-29T08:42:07;101264.42;;;7.36;100.00
28027;BME280;15344;52.342;-1.290;2023-01-29T08:44:33;101261.15;;;7.34;100.00
28027;BME280;15344;52.342;-1.290;2023-01-29T08:46:58;101251.47;;;7.95;100.00
28027;BME280;15344;52.342;-1.290;2023-01-29T08:49:24;101257.40;;;7.94;100.00
28027;BME280;15344;52.342;-1.290;2023-01-29T08:51:49;101257.69;;;7.87;100.00
28027;BME280;15344;52.342;-1.290;2023-01-29T08:54:15;101255.94;;;8.22;100.00
28027;BME280;15344;52.342;-1.290;2023-01-29T08:56:40;101260.23;;;8.13;100.00
28027;BME280;15344;52.342;-1.290;2023-01-29T08:59:05;101259.09;;;8.27;100.00
28027;BME280;15344;52.342;-1.290;2023-01-29T09:01:31;101256.84;;;8.15;100.00
28027;BME280;15344;52.342;-1.290;2023-01-29T09:03:56;101262.18;;;8.56;100.00
28027;BME280;15344;52.342;-1.290;2023-01-29T09:06:22;101267.33;;;8.14;100.00
28027;BME280;15344;52.342;-1.290;2023-01-29T09:08:47;101273.89;;;8.32;100.00
28027;BME280;15344;52.342;-1.290;2023-01-29T09:11:13;101279.41;;;7.61;100.00
28027;BME280;15344;52.342;-1.290;2023-01-29T09:13:38;101275.18;;;7.71;100.00
28027;BME280;15344;52.342;-1.290;2023-01-29T09:16:04;101269.72;;;7.61;100.00
28027;BME280;15344;52.342;-1.290;2023-01-29T09:18:29;101266.73;;;7.62;100.00
28027;BME280;15344;52.342;-1.290;2023-01-29T09:20:54;101265.76;;;8.37;100.00
28027;BME280;15344;52.342;-1.290;2023-01-29T09:23:20;101267.25;;;8.38;100.00
28027;BME280;15344;52.342;-1.290;2023-01-29T09:25:45;101274.92;;;7.37;100.00
28027;BME280;15344;52.342;-1.290;2023-01-29T09:28:10;101275.12;;;7.72;100.00
28027;BME280;15344;52.342;-1.290;2023-01-29T09:30:36;101271.53;;;8.15;100.00
28027;BME280;15344;52.342;-1.290;2023-01-29T09:33:01;101265.41;;;8.07;100.00
28027;BME280;15344;52.342;-1.290;2023-01-29T09:35:26;101259.92;;;8.38;100.00
28027;BME280;15344;52.342;-1.290;2023-01-29T09:37:52;101263.29;;;8.69;100.00
28027;BME280;15344;52.342;-1.290;2023-01-29T09:40:24;101260.28;;;8.46;100.00
28027;BME280;15344;52.342;-1.290;2023-01-29T09:42:47;101254.85;;;8.72;100.00
28027;BME280;15344;52.342;-1.290;2023-01-29T09:45:12;101250.83;;;8.85;100.00
28027;BME280;15344;52.342;-1.290;2023-01-29T09:47:35;101245.13;;;9.05;100.00
28027;BME280;15344;52.342;-1.290;2023-01-29T09:50:01;101243.81;;;8.62;100.00
28027;BME280;15344;52.342;-1.290;2023-01-29T09:52:26;101242.73;;;8.95;100.00
28027;BME280;15344;52.342;-1.290;2023-01-29T09:54:56;101246.53;;;9.12;100.00
28027;BME280;15344;52.342;-1.290;2023-01-29T09:57:21;101246.42;;;8.71;100.00
28027;BME280;15344;52.342;-1.290;2023-01-29T09:59:41;101244.86;;;8.84;100.00
28027;BME280;15344;52.342;-1.290;2023-01-29T10:02:10;101238.19;;;9.11;100.00
28027;BME280;15344;52.342;-1.290;2023-01-29T10:07:11;101239.67;;;9.00;100.00
28027;BME280;15344;52.342;-1.290;2023-01-29T10:09:38;101237.55;;;9.21;100.00
28027;BME280;15344;52.342;-1.290;2023-01-29T10:11:56;101237.98;;;8.38;100.00
28027;BME280;15344;52.342;-1.290;2023-01-29T10:14:17;101232.18;;;9.84;100.00
28027;BME280;15344;52.342;-1.290;2023-01-29T10:16:50;101231.12;;;9.86;100.00
28027;BME280;15344;52.342;-1.290;2023-01-29T10:19:17;101229.25;;;9.22;100.00
28027;BME280;15344;52.342;-1.290;2023-01-29T10:21:43;101219.89;;;9.95;100.00
28027;BME280;15344;52.342;-1.290;2023-01-29T10:24:05;101215.92;;;9.62;100.00
28027;BME280;15344;52.342;-1.290;2023-01-29T10:26:25;101209.84;;;10.61;100.00
28027;BME280;15344;52.342;-1.290;2023-01-29T10:28:50;101214.34;;;9.61;100.00
28027;BME280;15344;52.342;-1.290;2023-01-29T10:31:17;101209.82;;;9.22;100.00
28027;BME280;15344;52.342;-1.290;2023-01-29T10:33:41;101205.10;;;9.32;100.00
28027;BME280;15344;52.342;-1.290;2023-01-29T10:36:16;101198.04;;;9.67;100.00
28027;BME280;15344;52.342;-1.290;2023-01-29T10:38:38;101193.02;;;8.83;100.00
28027;BME280;15344;52.342;-1.290;2023-01-29T10:41:04;101190.73;;;9.45;100.00
28027;BME280;15344;52.342;-1.290;2023-01-29T10:43:28;101189.89;;;9.70;100.00
28027;BME280;15344;52.342;-1.290;2023-01-29T10:45:53;101186.81;;;9.56;100.00
28027;BME280;15344;52.342;-1.290;2023-01-29T10:50:46;101188.53;;;8.87;100.00
28027;BME280;15344;52.342;-1.290;2023-01-29T10:53:19;101185.21;;;9.73;100.00
28027;BME280;15344;52.342;-1.290;2023-01-29T10:55:39;101185.27;;;9.24;100.00
28027;BME280;15344;52.342;-1.290;2023-01-29T10:58:03;101176.53;;;9.41;100.00
28027;BME280;15344;52.342;-1.290;2023-01-29T11:00:22;101179.08;;;10.03;100.00
28027;BME280;15344;52.342;-1.290;2023-01-29T11:02:48;101179.84;;;9.87;100.00
28027;BME280;15344;52.342;-1.290;2023-01-29T11:05:19;101177.02;;;9.94;100.00
28027;BME280;15344;52.342;-1.290;2023-01-29T11:07:37;101173.95;;;10.61;100.00
28027;BME280;15344;52.342;-1.290;2023-01-29T11:10:09;101167.82;;;10.48;100.00
28027;BME280;15344;52.342;-1.290;2023-01-29T11:12:28;101170.16;;;10.74;100.00
28027;BME280;15344;52.342;-1.290;2023-01-29T11:14:55;101162.79;;;9.88;100.00
28027;BME280;15344;52.342;-1.290;2023-01-29T11:17:19;101159.16;;;10.42;100.00
28027;BME280;15344;52.342;-1.290;2023-01-29T11:19:45;101156.25;;;10.14;100.00
28027;BME280;15344;52.342;-1.290;2023-01-29T11:22:13;101151.83;;;9.82;100.00
28027;BME280;15344;52.342;-1.290;2023-01-29T11:24:35;101153.66;;;9.94;100.00
28027;BME280;15344;52.342;-1.290;2023-01-29T11:27:01;101151.99;;;10.04;100.00
28027;BME280;15344;52.342;-1.290;2023-01-29T11:29:33;101145.57;;;10.25;100.00
28027;BME280;15344;52.342;-1.290;2023-01-29T11:31:52;101141.06;;;10.79;100.00
28027;BME280;15344;52.342;-1.290;2023-01-29T11:34:20;101135.97;;;10.32;100.00
28027;BME280;15344;52.342;-1.290;2023-01-29T11:36:43;101133.15;;;9.97;100.00
28027;BME280;15344;52.342;-1.290;2023-01-29T11:39:14;101130.94;;;10.79;100.00
28027;BME280;15344;52.342;-1.290;2023-01-29T11:41:43;101125.95;;;10.73;100.00
28027;BME280;15344;52.342;-1.290;2023-01-29T11:43:59;101125.75;;;10.64;100.00
28027;BME280;15344;52.342;-1.290;2023-01-29T11:46:24;101106.90;;;11.63;100.00
28027;BME280;15344;52.342;-1.290;2023-01-29T11:48:51;101107.09;;;11.01;100.00
28027;BME280;15344;52.342;-1.290;2023-01-29T11:51:21;101100.63;;;10.41;100.00
28027;BME280;15344;52.342;-1.290;2023-01-29T11:53:42;101095.04;;;10.63;100.00
28027;BME280;15344;52.342;-1.290;2023-01-29T11:56:15;101088.18;;;11.09;100.00
28027;BME280;15344;52.342;-1.290;2023-01-29T11:58:33;101077.80;;;10.89;100.00
28027;BME280;15344;52.342;-1.290;2023-01-29T12:00:58;101059.54;;;11.75;99.62
28027;BME280;15344;52.342;-1.290;2023-01-29T12:03:29;101053.56;;;10.79;100.00
28027;BME280;15344;52.342;-1.290;2023-01-29T12:05:54;101054.36;;;10.18;100.00
28027;BME280;15344;52.342;-1.290;2023-01-29T12:08:16;101044.42;;;10.78;100.00
28027;BME280;15344;52.342;-1.290;2023-01-29T12:10:39;101037.54;;;10.89;100.00
28027;BME280;15344;52.342;-1.290;2023-01-29T12:13:06;101034.22;;;10.52;100.00
28027;BME280;15344;52.342;-1.290;2023-01-29T12:15:28;101032.27;;;10.49;100.00
28027;BME280;15344;52.342;-1.290;2023-01-29T12:18:02;101014.90;;;11.29;100.00
28027;BME280;15344;52.342;-1.290;2023-01-29T12:20:24;101006.74;;;11.78;100.00
28027;BME280;15344;52.342;-1.290;2023-01-29T12:22:49;101002.13;;;11.73;100.00
28027;BME280;15344;52.342;-1.290;2023-01-29T12:25:18;101001.99;;;10.42;100.00
28027;BME280;15344;52.342;-1.290;2023-01-29T12:27:40;101001.01;;;10.30;100.00
28027;BME280;15344;52.342;-1.290;2023-01-29T12:30:06;100988.50;;;10.50;100.00
28027;BME280;15344;52.342;-1.290;2023-01-29T12:32:31;100985.47;;;11.10;100.00
28027;BME280;15344;52.342;-1.290;2023-01-29T12:34:56;100982.93;;;10.90;100.00
28027;BME280;15344;52.342;-1.290;2023-01-29T12:37:20;100982.93;;;11.41;100.00